< < Back
Terminal Aerodrome Forecast


Current Version              Previous Versions:   1  2  3  4  5  6  7  8  9  

Terminal Aerodrome Forecast

291
FTUS42 KJAX 251120
TAFGNV
TAF
KGNV 251120Z 2512/2612 03004KT P6SM FEW020 SCT050
     FM251430 05010G16KT P6SM VCSH SCT030 BKN070
     FM252300 07007KT P6SM FEW040 SCT250=

Latest METAR

373
SAUS70 KWBC 251100 RRJ
MTRGNV
METAR KGNV 251053Z 35005KT 10SM CLR 23/21 A3008 RMK AO2 SLP184
T02280211


USA.gov is the U.S. government's official web portal to all federal, state and local government web resources and services.